createdAt,value
2018-06-05T00:00:55.175Z,10.23
2018-06-05T00:03:23.419Z,10.57
2018-06-05T00:05:51.725Z,10.43
2018-06-05T00:08:19.991Z,10.67
2018-06-05T00:10:48.261Z,10.70
2018-06-05T00:13:16.607Z,10.40
2018-06-05T00:15:44.908Z,9.80
2018-06-05T00:18:13.238Z,11.10
2018-06-05T00:20:41.486Z,11.40
2018-06-05T00:23:09.780Z,10.50
2018-06-05T00:25:38.059Z,10.93
2018-06-05T00:28:06.336Z,12.70
2018-06-05T00:30:34.631Z,11.33
2018-06-05T00:33:02.965Z,11.90
2018-06-05T00:35:31.240Z,10.63
2018-06-05T00:37:59.496Z,11.30
2018-06-05T00:40:27.839Z,10.90
2018-06-05T00:42:56.173Z,11.60
2018-06-05T00:45:24.495Z,11.47
2018-06-05T00:47:52.808Z,12.37
2018-06-05T00:50:21.088Z,11.00
2018-06-05T00:52:49.131Z,12.00
2018-06-05T00:55:17.448Z,11.30
2018-06-05T00:57:45.760Z,11.23
2018-06-05T01:00:14.053Z,11.47
2018-06-05T01:02:42.395Z,11.33
2018-06-05T01:05:10.693Z,11.63
2018-06-05T01:07:39.081Z,12.33
2018-06-05T01:10:07.371Z,12.07
2018-06-05T01:12:35.670Z,13.33
2018-06-05T01:15:03.994Z,13.13
2018-06-05T01:17:32.289Z,13.23
2018-06-05T01:20:00.592Z,12.00
2018-06-05T01:22:29.389Z,12.47
2018-06-05T01:24:57.740Z,12.97
2018-06-05T01:27:26.042Z,13.57
2018-06-05T01:29:54.361Z,13.33
2018-06-05T01:32:22.657Z,13.23
2018-06-05T01:34:50.982Z,12.87
2018-06-05T01:37:19.249Z,13.27
2018-06-05T01:39:47.530Z,13.83
2018-06-05T01:42:15.763Z,13.93
2018-06-05T01:44:44.071Z,12.83
2018-06-05T01:47:12.430Z,13.77
2018-06-05T01:49:42.064Z,13.50
2018-06-05T01:52:10.337Z,12.77
2018-06-05T01:54:38.588Z,14.00
2018-06-05T01:57:06.896Z,12.70
2018-06-05T01:59:35.939Z,12.37
2018-06-05T02:02:04.278Z,13.57
2018-06-05T02:04:32.619Z,11.20
2018-06-05T02:07:00.987Z,13.47
2018-06-05T02:09:29.256Z,12.67
2018-06-05T02:11:57.583Z,13.00
2018-06-05T02:14:25.852Z,13.60
2018-06-05T02:16:54.136Z,13.07
2018-06-05T02:19:22.969Z,14.00
2018-06-05T02:21:51.279Z,14.17
2018-06-05T02:24:19.556Z,13.27
2018-06-05T02:26:47.838Z,13.03
2018-06-05T02:29:16.242Z,13.80
2018-06-05T02:31:44.315Z,12.67
2018-06-05T02:34:12.321Z,13.03
2018-06-05T02:36:40.616Z,13.07
2018-06-05T02:39:08.948Z,14.67
2018-06-05T02:41:36.956Z,14.53
2018-06-05T02:44:05.317Z,13.93
2018-06-05T02:46:33.631Z,13.83
2018-06-05T02:49:01.907Z,13.33
2018-06-05T02:51:30.200Z,13.37
2018-06-05T02:53:58.493Z,13.23
2018-06-05T02:56:26.773Z,13.30
2018-06-05T02:58:54.819Z,13.03
2018-06-05T03:01:23.134Z,13.30
2018-06-05T03:03:51.160Z,13.17
2018-06-05T03:06:19.484Z,14.27
2018-06-05T03:08:47.765Z,13.10
2018-06-05T03:11:15.811Z,14.40
2018-06-05T03:13:44.177Z,13.37
2018-06-05T03:16:13.328Z,14.97
2018-06-05T03:18:41.581Z,14.23
2018-06-05T03:21:09.896Z,14.73
2018-06-05T03:23:38.199Z,13.80
2018-06-05T03:26:06.468Z,15.70
2018-06-05T03:28:34.844Z,15.27
2018-06-05T03:31:03.164Z,14.70
2018-06-05T03:33:31.139Z,14.80
2018-06-05T03:35:59.436Z,15.97
2018-06-05T03:38:27.734Z,16.37
2018-06-05T03:40:56.021Z,15.93
2018-06-05T03:43:24.357Z,16.47
2018-06-05T03:45:52.617Z,16.17
2018-06-05T03:48:20.898Z,17.07
2018-06-05T03:50:49.170Z,17.07
2018-06-05T03:53:17.483Z,16.13
2018-06-05T03:55:45.767Z,16.17
2018-06-05T03:58:13.995Z,16.77
2018-06-05T04:00:42.041Z,17.07
2018-06-05T04:03:10.284Z,16.93
2018-06-05T04:05:38.589Z,17.53
2018-06-05T04:08:06.883Z,17.17
2018-06-05T04:10:35.171Z,15.93
2018-06-05T04:13:03.443Z,16.80
2018-06-05T04:15:31.701Z,16.27
2018-06-05T04:17:59.946Z,16.27
2018-06-05T04:20:28.255Z,17.10
2018-06-05T04:22:56.524Z,17.03
2018-06-05T04:25:24.773Z,16.30
2018-06-05T04:27:53.147Z,17.97
2018-06-05T04:30:21.455Z,17.03
2018-06-05T04:32:49.728Z,16.23
2018-06-05T04:35:18.088Z,17.40
2018-06-05T04:37:46.332Z,17.20
2018-06-05T04:40:14.628Z,16.40
2018-06-05T04:42:42.955Z,17.00
2018-06-05T04:45:11.252Z,17.37
2018-06-05T04:47:39.276Z,18.33
2018-06-05T04:50:07.579Z,16.70
2018-06-05T04:52:35.856Z,17.00
2018-06-05T04:55:04.127Z,17.00
2018-06-05T04:57:32.414Z,16.23
2018-06-05T05:00:00.812Z,17.10
2018-06-05T05:02:28.833Z,16.10
2018-06-05T05:04:57.159Z,16.10
2018-06-05T05:07:25.147Z,16.70
2018-06-05T05:09:53.424Z,15.83
2018-06-05T05:12:21.756Z,15.60
2018-06-05T05:14:50.051Z,16.30
2018-06-05T05:17:18.316Z,16.13
2018-06-05T05:19:46.592Z,15.50
2018-06-05T05:22:14.860Z,16.30
2018-06-05T05:24:43.220Z,14.87
2018-06-05T05:27:11.558Z,15.23
2018-06-05T05:29:39.923Z,13.97
2018-06-05T05:32:08.038Z,15.30
2018-06-05T05:34:36.312Z,13.80
2018-06-05T05:37:04.597Z,14.17
2018-06-05T05:39:32.859Z,15.10
2018-06-05T05:42:01.200Z,14.00
2018-06-05T05:44:29.220Z,12.73
2018-06-05T05:46:57.473Z,15.33
2018-06-05T05:49:25.740Z,16.17
2018-06-05T05:51:54.002Z,14.73
2018-06-05T05:54:22.327Z,14.03
2018-06-05T05:56:50.642Z,13.67
2018-06-05T05:59:19.448Z,13.13
2018-06-05T06:01:47.756Z,13.73
2018-06-05T06:04:16.035Z,13.90
2018-06-05T06:06:44.315Z,13.33
2018-06-05T06:09:12.609Z,13.40
2018-06-05T06:11:40.900Z,10.70
2018-06-05T06:14:09.176Z,12.53
2018-06-05T06:16:37.554Z,12.40
2018-06-05T06:19:05.830Z,13.10
2018-06-05T06:21:34.092Z,12.33
2018-06-05T06:24:02.408Z,13.10
2018-06-05T06:26:30.668Z,11.53
2018-06-05T06:28:58.928Z,11.63
2018-06-05T06:31:27.274Z,12.67
2018-06-05T06:33:55.578Z,11.83
2018-06-05T06:36:23.883Z,12.43
2018-06-05T06:38:52.179Z,10.83
2018-06-05T06:41:20.536Z,11.50
2018-06-05T06:43:48.809Z,11.40
2018-06-05T06:46:17.136Z,11.27
2018-06-05T06:48:45.454Z,11.43
2018-06-05T06:51:13.728Z,10.47
2018-06-05T06:53:42.029Z,9.53
2018-06-05T06:56:10.252Z,9.70
2018-06-05T06:58:38.513Z,10.23
2018-06-05T07:01:06.810Z,9.70
2018-06-05T07:03:35.132Z,10.53
2018-06-05T07:06:03.305Z,10.60
2018-06-05T07:08:31.643Z,10.83
2018-06-05T07:10:59.951Z,9.50
2018-06-05T07:13:28.207Z,11.03
2018-06-05T07:15:56.496Z,9.93
2018-06-05T07:18:24.792Z,11.13
2018-06-05T07:20:53.031Z,9.93
2018-06-05T07:23:21.356Z,10.20
2018-06-05T07:25:49.596Z,9.13
2018-06-05T07:28:17.923Z,9.47
2018-06-05T07:30:46.164Z,9.70
2018-06-05T07:33:14.449Z,10.10
2018-06-05T07:35:42.753Z,8.63
2018-06-05T07:38:11.043Z,8.93
2018-06-05T07:40:39.307Z,9.73
2018-06-05T07:43:07.575Z,8.60
2018-06-05T07:45:35.859Z,8.60
2018-06-05T07:48:03.939Z,9.47
2018-06-05T07:50:31.936Z,8.63
2018-06-05T07:53:00.200Z,9.17
2018-06-05T07:55:28.568Z,9.30
2018-06-05T07:57:56.883Z,8.97
2018-06-05T08:00:25.164Z,8.83
2018-06-05T08:02:53.456Z,8.93
2018-06-05T08:05:21.719Z,9.00
2018-06-05T08:07:50.011Z,9.00
2018-06-05T08:10:18.294Z,8.53
2018-06-05T08:12:46.571Z,9.13
2018-06-05T08:15:14.859Z,8.40
2018-06-05T08:17:43.112Z,8.97
2018-06-05T08:20:11.391Z,8.17
2018-06-05T08:22:49.779Z,9.23
2018-06-05T08:25:18.075Z,8.37
2018-06-05T08:27:46.349Z,9.07
2018-06-05T08:30:14.608Z,8.83
2018-06-05T08:32:42.886Z,9.37
2018-06-05T08:35:11.189Z,9.67
2018-06-05T08:37:39.515Z,8.60
2018-06-05T08:40:07.765Z,10.13
2018-06-05T08:42:36.056Z,9.83
2018-06-05T08:45:04.413Z,8.70
2018-06-05T08:47:32.663Z,8.90
2018-06-05T08:50:00.911Z,8.77
2018-06-05T08:52:29.207Z,8.30
2018-06-05T08:54:57.493Z,9.87
2018-06-05T08:57:25.798Z,9.57
2018-06-05T08:59:54.150Z,10.03
2018-06-05T09:02:22.393Z,8.93
2018-06-05T09:04:50.634Z,8.67
2018-06-05T09:07:18.895Z,8.17
2018-06-05T09:09:47.245Z,8.53
2018-06-05T09:12:15.504Z,8.63
2018-06-05T09:14:43.751Z,8.80
2018-06-05T09:17:12.012Z,8.87
2018-06-05T09:19:40.237Z,8.70
2018-06-05T09:22:08.531Z,8.80
2018-06-05T09:24:36.816Z,9.27
2018-06-05T09:27:05.176Z,9.80
2018-06-05T09:29:34.489Z,9.37
2018-06-05T09:32:02.795Z,8.73
2018-06-05T09:34:31.113Z,8.40
2018-06-05T09:36:59.446Z,9.30
2018-06-05T09:39:27.680Z,8.53
2018-06-05T09:41:55.951Z,8.37
2018-06-05T09:44:24.235Z,7.70
2018-06-05T09:46:52.558Z,8.57
2018-06-05T09:49:20.785Z,9.40
2018-06-05T09:51:49.016Z,8.70
2018-06-05T09:54:17.347Z,8.63
2018-06-05T09:56:45.599Z,8.30
2018-06-05T09:59:14.090Z,9.33
2018-06-05T10:01:42.306Z,9.80
2018-06-05T10:04:10.624Z,9.00
2018-06-05T10:06:38.921Z,8.23
2018-06-05T10:09:07.587Z,8.63
2018-06-05T10:11:35.900Z,10.03
2018-06-05T10:14:04.224Z,9.17
2018-06-05T10:16:32.192Z,9.30
2018-06-05T10:19:00.209Z,8.93
2018-06-05T10:21:28.488Z,8.00
2018-06-05T10:23:56.813Z,9.07
2018-06-05T10:26:25.136Z,8.50
2018-06-05T10:28:53.411Z,8.67
2018-06-05T10:31:21.668Z,9.10
2018-06-05T10:33:49.903Z,9.00
2018-06-05T10:36:18.238Z,10.53
2018-06-05T10:38:46.500Z,8.77
2018-06-05T10:41:14.742Z,8.97
2018-06-05T10:43:43.036Z,8.37
2018-06-05T10:46:11.295Z,9.40
2018-06-05T10:48:39.559Z,9.17
2018-06-05T10:51:07.828Z,9.40
2018-06-05T10:53:36.111Z,8.93
2018-06-05T10:56:04.428Z,9.00
2018-06-05T10:58:32.708Z,10.30
2018-06-05T11:01:00.977Z,8.77
2018-06-05T11:03:29.238Z,9.47
2018-06-05T11:05:57.218Z,9.73
2018-06-05T11:08:25.472Z,11.23
2018-06-05T11:10:53.498Z,10.10
2018-06-05T11:13:21.813Z,10.23
2018-06-05T11:15:50.081Z,9.37
2018-06-05T11:18:18.386Z,9.47
2018-06-05T11:20:46.406Z,8.60
2018-06-05T11:23:14.677Z,9.90
2018-06-05T11:25:42.979Z,9.47
2018-06-05T11:28:11.272Z,9.10
2018-06-05T11:30:39.540Z,9.30
2018-06-05T11:33:07.812Z,10.33
2018-06-05T11:35:36.099Z,8.77
2018-06-05T11:38:04.342Z,9.70
2018-06-05T11:40:32.710Z,8.93
2018-06-05T11:43:00.944Z,8.83
2018-06-05T11:45:29.043Z,9.53
2018-06-05T11:47:57.360Z,9.90
2018-06-05T11:50:25.798Z,9.47
2018-06-05T11:52:54.199Z,10.10
2018-06-05T11:55:22.524Z,10.17
2018-06-05T11:57:50.858Z,9.20
2018-06-05T12:00:19.317Z,10.57
2018-06-05T12:02:47.816Z,10.43
2018-06-05T12:05:16.384Z,9.73
2018-06-05T12:07:44.728Z,8.97
2018-06-05T12:10:12.802Z,9.63
2018-06-05T12:12:41.185Z,11.00
2018-06-05T12:15:09.205Z,11.63
2018-06-05T12:17:37.486Z,9.43
2018-06-05T12:20:05.796Z,9.67
2018-06-05T12:22:34.096Z,10.00
2018-06-05T12:25:02.158Z,9.10
2018-06-05T12:27:30.579Z,9.77
2018-06-05T12:29:58.860Z,12.10
2018-06-05T12:32:27.124Z,11.80
2018-06-05T12:34:55.409Z,11.23
2018-06-05T12:37:23.703Z,10.03
2018-06-05T12:39:52.003Z,11.43
2018-06-05T12:42:20.287Z,10.40
2018-06-05T12:44:48.537Z,11.77
2018-06-05T12:47:16.842Z,11.10
2018-06-05T12:49:45.110Z,11.23
2018-06-05T12:52:13.439Z,10.50
2018-06-05T12:54:41.715Z,11.20
2018-06-05T12:57:10.003Z,12.30
2018-06-05T12:59:38.325Z,10.53
2018-06-05T13:02:06.983Z,12.03
2018-06-05T13:04:35.316Z,12.37
2018-06-05T13:07:03.314Z,11.33
2018-06-05T13:09:31.602Z,11.97
2018-06-05T13:11:59.925Z,11.10
2018-06-05T13:14:28.182Z,10.97
2018-06-05T13:16:56.524Z,10.80
2018-06-05T13:19:24.860Z,10.10
2018-06-05T13:21:53.109Z,10.83
2018-06-05T13:24:21.366Z,9.97
2018-06-05T13:26:49.698Z,11.83
2018-06-05T13:29:18.402Z,11.17
2018-06-05T13:31:46.685Z,10.43
2018-06-05T13:34:14.979Z,11.33
2018-06-05T13:36:43.357Z,10.47
2018-06-05T13:39:11.541Z,10.63
2018-06-05T13:41:39.838Z,10.93
2018-06-05T13:44:08.171Z,10.90
2018-06-05T13:46:36.452Z,12.03
2018-06-05T13:49:04.863Z,10.23
2018-06-05T13:53:57.301Z,10.70
2018-06-05T13:56:25.604Z,12.33
2018-06-05T13:58:53.893Z,11.30
2018-06-05T14:01:22.224Z,10.03
2018-06-05T14:03:50.575Z,10.60
2018-06-05T14:06:18.593Z,10.33
2018-06-05T14:08:46.868Z,10.27
2018-06-05T14:11:14.906Z,9.77
2018-06-05T14:13:43.209Z,9.60
2018-06-05T14:16:11.503Z,9.40
2018-06-05T14:18:39.801Z,9.40
2018-06-05T14:21:08.062Z,10.60
2018-06-05T14:23:36.297Z,11.30
2018-06-05T14:26:04.643Z,10.20
2018-06-05T14:28:32.885Z,9.80
2018-06-05T14:31:01.140Z,10.53
2018-06-05T14:33:29.408Z,8.70
2018-06-05T14:35:57.726Z,9.43
2018-06-05T14:38:26.007Z,8.80
2018-06-05T14:40:54.324Z,8.27
2018-06-05T14:43:22.695Z,8.50
2018-06-05T14:45:50.741Z,9.97
2018-06-05T14:48:18.998Z,10.27
2018-06-05T14:50:47.325Z,9.70
2018-06-05T14:53:15.676Z,8.53
2018-06-05T14:55:44.022Z,9.10
2018-06-05T14:58:12.348Z,8.73
2018-06-05T15:00:40.386Z,9.83
2018-06-05T15:03:08.665Z,7.93
2018-06-05T15:05:36.944Z,7.80
2018-06-05T15:08:05.929Z,8.57
2018-06-05T15:10:34.198Z,9.13
2018-06-05T15:13:02.496Z,8.80
2018-06-05T15:15:30.765Z,8.60
2018-06-05T15:17:59.012Z,8.67
2018-06-05T15:20:27.431Z,8.87
2018-06-05T15:22:55.714Z,8.27
2018-06-05T15:25:23.953Z,9.53
2018-06-05T15:27:52.206Z,10.23
2018-06-05T15:30:20.504Z,9.03
2018-06-05T15:32:48.785Z,10.23
2018-06-05T15:35:17.076Z,9.53
2018-06-05T15:37:45.383Z,8.87
2018-06-05T15:40:13.701Z,10.17
2018-06-05T15:42:41.984Z,10.70
2018-06-05T15:45:10.280Z,10.70
2018-06-05T15:47:38.608Z,10.70
2018-06-05T15:50:06.935Z,10.47
2018-06-05T15:52:35.231Z,10.33
2018-06-05T15:55:03.306Z,9.57
2018-06-05T15:57:31.557Z,10.47
2018-06-05T15:59:59.854Z,9.10
2018-06-05T16:02:28.131Z,8.83
2018-06-05T16:04:56.365Z,11.10
2018-06-05T16:07:24.647Z,10.30
2018-06-05T16:09:52.892Z,10.17
2018-06-05T16:12:21.153Z,12.83
2018-06-05T16:14:49.168Z,12.10
2018-06-05T16:17:17.421Z,12.87
2018-06-05T16:19:45.656Z,11.53
2018-06-05T16:22:13.948Z,10.83
2018-06-05T16:24:41.978Z,10.70
2018-06-05T16:27:10.253Z,11.83
2018-06-05T16:29:38.587Z,11.93
2018-06-05T16:32:07.119Z,11.93
2018-06-05T16:34:35.376Z,11.60
2018-06-05T16:37:03.715Z,11.67
2018-06-05T16:39:31.718Z,11.93
2018-06-05T16:42:00.046Z,11.37
2018-06-05T16:44:28.257Z,11.60
2018-06-05T16:46:56.524Z,13.67
2018-06-05T16:49:24.801Z,12.20
2018-06-05T16:51:53.063Z,12.90
2018-06-05T16:54:21.045Z,12.43
2018-06-05T16:56:49.334Z,12.10
2018-06-05T16:59:18.171Z,13.00
2018-06-05T17:01:46.219Z,12.73
2018-06-05T17:04:14.527Z,13.03
2018-06-05T17:06:42.804Z,12.57
2018-06-05T17:09:11.074Z,12.90
2018-06-05T17:11:39.351Z,13.23
2018-06-05T17:14:07.688Z,12.87
2018-06-05T17:16:35.997Z,13.37
2018-06-05T17:19:04.284Z,13.37
2018-06-05T17:21:32.580Z,13.27
2018-06-05T17:24:00.870Z,12.73
2018-06-05T17:26:29.164Z,11.97
2018-06-05T17:28:57.451Z,13.27
2018-06-05T17:31:25.751Z,14.20
2018-06-05T17:33:54.074Z,13.93
2018-06-05T17:36:22.330Z,13.90
2018-06-05T17:38:50.655Z,14.10
2018-06-05T17:41:18.926Z,14.60
2018-06-05T17:43:47.235Z,13.80
2018-06-05T17:46:15.522Z,14.23
2018-06-05T17:48:43.796Z,13.73
2018-06-05T17:51:12.069Z,13.93
2018-06-05T17:53:40.364Z,15.90
2018-06-05T17:56:08.639Z,14.37
2018-06-05T17:58:36.672Z,13.47
2018-06-05T18:01:04.963Z,14.40
2018-06-05T18:03:33.239Z,14.43
2018-06-05T18:06:01.518Z,15.50
2018-06-05T18:08:29.833Z,14.53
2018-06-05T18:10:57.822Z,15.13
2018-06-05T18:13:26.067Z,13.80
2018-06-05T18:15:54.117Z,15.23
2018-06-05T18:18:22.397Z,14.40
2018-06-05T18:20:50.661Z,16.70
2018-06-05T18:23:18.948Z,16.83
2018-06-05T18:25:47.258Z,16.50
2018-06-05T18:28:15.527Z,15.30
2018-06-05T18:30:43.539Z,15.43
2018-06-05T18:33:11.827Z,15.50
2018-06-05T18:35:40.136Z,17.37
2018-06-05T18:38:08.435Z,15.47
2018-06-05T18:40:36.431Z,16.83
2018-06-05T18:43:05.012Z,16.50
2018-06-05T18:45:33.289Z,17.00
2018-06-05T18:48:01.567Z,18.27
2018-06-05T18:50:29.825Z,18.33
2018-06-05T18:52:58.099Z,18.50
2018-06-05T18:55:26.385Z,19.10
2018-06-05T18:57:54.690Z,17.70
2018-06-05T19:00:22.980Z,18.43
2018-06-05T19:02:51.286Z,18.80
2018-06-05T19:05:19.602Z,18.40
2018-06-05T19:07:47.896Z,19.00
2018-06-05T19:10:16.144Z,19.07
2018-06-05T19:12:44.478Z,18.60
2018-06-05T19:15:12.816Z,19.07
2018-06-05T19:17:41.122Z,19.77
2018-06-05T19:20:09.407Z,20.00
2018-06-05T19:22:37.704Z,19.57
2018-06-05T19:25:05.719Z,19.63
2018-06-05T19:27:34.012Z,19.03
2018-06-05T19:30:02.381Z,17.67
2018-06-05T19:32:30.699Z,19.83
2018-06-05T19:34:58.974Z,18.53
2018-06-05T19:37:27.250Z,18.10
2018-06-05T19:39:55.523Z,16.23
2018-06-05T19:42:23.829Z,16.83
2018-06-05T19:44:52.104Z,16.87
2018-06-05T19:47:20.171Z,16.27
2018-06-05T19:49:48.198Z,16.23
2018-06-05T19:52:16.460Z,15.93
2018-06-05T19:54:44.773Z,16.27
2018-06-05T19:57:13.098Z,15.53
2018-06-05T19:59:41.492Z,14.57
2018-06-05T20:02:09.802Z,14.53
2018-06-05T20:04:38.065Z,13.00
2018-06-05T20:07:06.356Z,14.60
2018-06-05T20:09:34.692Z,13.93
2018-06-05T20:12:02.981Z,14.30
2018-06-05T20:14:31.276Z,14.33
2018-06-05T20:16:59.567Z,14.90
2018-06-05T20:19:27.831Z,14.87
2018-06-05T20:21:56.141Z,14.87
2018-06-05T20:24:24.153Z,14.70
2018-06-05T20:26:52.401Z,15.23
2018-06-05T20:29:21.504Z,15.60
2018-06-05T20:31:49.844Z,15.73
2018-06-05T20:34:18.159Z,16.57
2018-06-05T20:36:46.443Z,15.87
2018-06-05T20:39:14.726Z,16.43
2018-06-05T20:41:42.972Z,16.17
2018-06-05T20:44:11.263Z,16.63
2018-06-05T20:46:39.562Z,16.17
2018-06-05T20:49:07.839Z,16.00
2018-06-05T20:51:36.145Z,19.03
2018-06-05T20:54:04.433Z,16.43
2018-06-05T20:56:32.722Z,17.57
2018-06-05T20:59:00.829Z,18.93
2018-06-05T21:01:29.116Z,18.53
2018-06-05T21:03:57.348Z,19.80
2018-06-05T21:06:25.396Z,19.00
2018-06-05T21:08:53.653Z,19.33
2018-06-05T21:11:21.917Z,19.27
2018-06-05T21:13:50.183Z,18.97
2018-06-05T21:16:18.467Z,21.10
2018-06-05T21:18:46.713Z,20.03
2018-06-05T21:21:14.744Z,19.93
2018-06-05T21:23:42.999Z,22.47
2018-06-05T21:26:11.284Z,21.83
2018-06-05T21:28:39.595Z,20.83
2018-06-05T21:31:07.852Z,17.87
2018-06-05T21:33:36.152Z,21.37
2018-06-05T21:36:04.148Z,22.00
2018-06-05T21:38:32.420Z,22.93
2018-06-05T21:41:00.698Z,21.27
2018-06-05T21:43:29.004Z,20.90
2018-06-05T21:45:57.229Z,23.20
2018-06-05T21:48:25.505Z,23.47
2018-06-05T21:50:53.517Z,23.77
2018-06-05T21:53:21.834Z,22.80
2018-06-05T21:55:50.143Z,22.80
2018-06-05T21:58:18.430Z,22.67
2018-06-05T22:00:46.764Z,23.97
2018-06-05T22:03:15.039Z,23.60
2018-06-05T22:05:43.325Z,24.93
2018-06-05T22:08:11.609Z,23.60
2018-06-05T22:10:39.631Z,24.73
2018-06-05T22:13:07.905Z,26.37
2018-06-05T22:15:36.227Z,25.10
2018-06-05T22:18:04.464Z,25.30
2018-06-05T22:20:32.756Z,25.73
2018-06-05T22:23:01.069Z,26.23
2018-06-05T22:25:29.340Z,23.80
2018-06-05T22:27:57.349Z,25.33
2018-06-05T22:30:25.605Z,23.47
2018-06-05T22:32:53.878Z,25.07
2018-06-05T22:35:22.208Z,25.67
2018-06-05T22:37:50.504Z,23.90
2018-06-05T22:40:18.776Z,26.00
2018-06-05T22:42:47.053Z,24.33
2018-06-05T22:45:15.343Z,24.03
2018-06-05T22:47:43.379Z,26.87
2018-06-05T22:50:11.672Z,25.70
2018-06-05T22:52:39.989Z,25.90
2018-06-05T22:55:08.284Z,26.17
2018-06-05T22:57:36.544Z,24.67
2018-06-05T23:00:04.830Z,23.97
2018-06-05T23:02:33.115Z,25.53
2018-06-05T23:05:01.388Z,25.93
2018-06-05T23:07:29.709Z,22.87
2018-06-05T23:09:58.004Z,24.23
2018-06-05T23:12:26.276Z,25.77
2018-06-05T23:14:54.565Z,25.60
2018-06-05T23:17:22.862Z,26.97
2018-06-05T23:19:51.147Z,26.07
2018-06-05T23:22:19.443Z,25.77
2018-06-05T23:24:47.780Z,23.80
2018-06-05T23:27:15.768Z,22.27
2018-06-05T23:29:44.225Z,24.70
2018-06-05T23:32:12.529Z,25.63
2018-06-05T23:34:40.822Z,25.27
2018-06-05T23:37:09.116Z,25.00
2018-06-05T23:39:37.387Z,25.63
2018-06-05T23:42:05.708Z,25.33
2018-06-05T23:44:34.008Z,26.80
2018-06-05T23:47:02.393Z,25.30
2018-06-05T23:49:30.659Z,25.43
2018-06-05T23:51:59.002Z,24.40
2018-06-05T23:54:27.384Z,24.30
2018-06-05T23:56:55.695Z,23.23
2018-06-05T23:59:25.503Z,25.00
